createdAt,value
2022-12-28T00:02:13.923Z,77.45
2022-12-28T00:04:44.428Z,78.88
2022-12-28T00:07:11.708Z,79.38
2022-12-28T00:09:40.886Z,83.15
2022-12-28T00:12:08.353Z,76.95
2022-12-28T00:14:35.577Z,80.07
2022-12-28T00:17:02.758Z,79.00
2022-12-28T00:19:30.231Z,75.80
2022-12-28T00:21:57.692Z,85.43
2022-12-28T00:24:26.221Z,80.15
2022-12-28T00:26:56.684Z,87.15
2022-12-28T00:29:24.362Z,82.07
2022-12-28T00:31:51.876Z,84.82
2022-12-28T00:34:19.452Z,74.20
2022-12-28T00:37:11.701Z,71.72
2022-12-28T00:39:37.919Z,70.45
2022-12-28T00:42:06.057Z,72.82
2022-12-28T00:44:33.385Z,71.30
2022-12-28T00:47:00.738Z,71.50
2022-12-28T00:49:28.146Z,72.32
2022-12-28T00:51:55.435Z,67.07
2022-12-28T00:54:23.251Z,69.15
2022-12-28T00:56:52.659Z,72.07
2022-12-28T00:59:19.850Z,75.10
2022-12-28T01:01:47.110Z,74.72
2022-12-28T01:04:14.692Z,73.93
2022-12-28T01:06:42.030Z,74.80
2022-12-28T01:09:09.288Z,75.93
2022-12-28T01:11:36.555Z,76.40
2022-12-28T01:14:03.963Z,70.75
2022-12-28T01:16:39.325Z,70.32
2022-12-28T01:19:09.928Z,71.90
2022-12-28T01:21:37.245Z,69.32
2022-12-28T01:24:08.561Z,73.43
2022-12-28T01:26:36.542Z,71.93
2022-12-28T01:29:03.964Z,71.32
2022-12-28T01:31:33.414Z,70.68
2022-12-28T01:34:02.035Z,75.43
2022-12-28T01:36:33.003Z,71.07
2022-12-28T01:39:04.291Z,71.10
2022-12-28T01:41:37.655Z,71.18
2022-12-28T01:44:04.737Z,71.03
2022-12-28T01:46:42.933Z,69.50
2022-12-28T01:49:40.793Z,72.70
2022-12-28T01:52:39.702Z,67.38
2022-12-28T01:55:12.762Z,71.60
2022-12-28T01:57:50.138Z,71.97
2022-12-28T02:00:18.560Z,72.25
2022-12-28T02:03:05.286Z,72.35
2022-12-28T02:05:41.667Z,75.25
2022-12-28T02:08:46.808Z,76.68
2022-12-28T02:11:18.507Z,72.13
2022-12-28T02:13:50.662Z,75.70
2022-12-28T02:16:19.265Z,75.30
2022-12-28T02:18:48.310Z,73.43
2022-12-28T02:21:43.721Z,75.47
2022-12-28T02:24:41.683Z,71.45
2022-12-28T02:27:24.621Z,71.25
2022-12-28T02:30:12.832Z,68.40
2022-12-28T02:33:07.961Z,70.88
2022-12-28T02:36:18.125Z,74.95
2022-12-28T02:39:08.559Z,68.65
2022-12-28T02:41:40.174Z,71.78
2022-12-28T02:44:08.059Z,74.60
2022-12-28T02:46:54.215Z,73.22
2022-12-28T02:53:12.794Z,68.10
2022-12-28T02:56:08.183Z,67.68
2022-12-28T02:59:19.148Z,68.93
2022-12-28T03:02:20.772Z,65.75
2022-12-28T03:05:19.031Z,64.40
2022-12-28T03:08:20.491Z,59.88
2022-12-28T03:11:19.256Z,57.22
2022-12-28T03:14:09.368Z,56.22
2022-12-28T03:17:04.142Z,56.65
2022-12-28T03:20:04.474Z,59.25
2022-12-28T03:22:55.639Z,61.17
2022-12-28T03:25:49.794Z,62.15
2022-12-28T03:28:46.065Z,61.90
2022-12-28T03:31:19.737Z,60.17
2022-12-28T03:34:06.716Z,58.00
2022-12-28T03:37:29.142Z,58.25
2022-12-28T03:40:40.968Z,60.65
2022-12-28T03:43:35.212Z,61.47
2022-12-28T03:46:23.344Z,57.17
2022-12-28T03:48:53.060Z,60.00
2022-12-28T03:51:24.278Z,62.88
2022-12-28T03:53:52.755Z,57.33
2022-12-28T03:56:28.224Z,58.95
2022-12-28T03:58:59.411Z,56.88
2022-12-28T04:01:34.876Z,57.47
2022-12-28T04:04:02.314Z,59.55
2022-12-28T04:06:29.536Z,60.28
2022-12-28T04:08:57.556Z,58.10
2022-12-28T04:11:28.204Z,59.92
2022-12-28T04:13:56.988Z,61.15
2022-12-28T04:16:26.864Z,59.00
2022-12-28T04:18:54.562Z,57.83
2022-12-28T04:21:22.039Z,58.42
2022-12-28T04:23:49.261Z,60.15
2022-12-28T04:26:26.111Z,59.40
2022-12-28T04:28:57.940Z,61.35
2022-12-28T04:31:25.286Z,64.20
2022-12-28T04:34:05.323Z,65.63
2022-12-28T04:36:35.912Z,63.58
2022-12-28T04:39:06.971Z,60.65
2022-12-28T04:41:34.133Z,62.83
2022-12-28T04:44:01.795Z,64.47
2022-12-28T04:46:29.204Z,64.80
2022-12-28T04:48:56.420Z,60.17
2022-12-28T04:51:27.452Z,58.97
2022-12-28T04:53:56.917Z,58.35
2022-12-28T04:56:26.358Z,58.30
2022-12-28T04:59:00.851Z,54.20
2022-12-28T05:01:28.701Z,57.45
2022-12-28T05:03:59.874Z,56.15
2022-12-28T05:06:27.997Z,51.90
2022-12-28T05:08:57.582Z,53.35
2022-12-28T05:11:28.913Z,53.10
2022-12-28T05:13:57.005Z,51.40
2022-12-28T05:16:27.981Z,58.28
2022-12-28T05:18:57.542Z,56.20
2022-12-28T05:21:29.149Z,54.22
2022-12-28T05:23:57.528Z,55.15
2022-12-28T05:26:29.068Z,54.47
2022-12-28T05:28:58.524Z,55.33
2022-12-28T05:31:26.458Z,53.08
2022-12-28T05:33:54.727Z,54.42
2022-12-28T05:36:26.129Z,52.45
2022-12-28T05:38:55.198Z,53.83
2022-12-28T05:41:27.856Z,51.38
2022-12-28T05:43:57.597Z,52.45
2022-12-28T05:46:30.939Z,52.85
2022-12-28T05:48:59.265Z,52.80
2022-12-28T05:51:32.536Z,51.83
2022-12-28T05:54:04.390Z,52.42
2022-12-28T05:56:32.560Z,52.10
2022-12-28T05:59:04.553Z,51.17
2022-12-28T06:01:39.750Z,51.88
2022-12-28T06:04:16.390Z,52.38
2022-12-28T06:06:45.364Z,53.55
2022-12-28T06:09:14.083Z,52.45
2022-12-28T06:11:41.950Z,52.42
2022-12-28T06:14:09.399Z,53.08
2022-12-28T06:16:42.134Z,55.80
2022-12-28T06:19:14.563Z,55.00
2022-12-28T06:21:42.457Z,55.35
2022-12-28T06:24:11.542Z,58.28
2022-12-28T06:26:40.883Z,56.00
2022-12-28T06:29:08.420Z,56.30
2022-12-28T06:31:40.668Z,53.80
2022-12-28T06:34:10.764Z,53.03
2022-12-28T06:36:45.262Z,49.17
2022-12-28T06:39:14.478Z,47.47
2022-12-28T06:41:42.889Z,46.70
2022-12-28T06:44:13.587Z,56.55
2022-12-28T06:46:41.156Z,61.08
2022-12-28T06:49:08.592Z,54.88
2022-12-28T06:51:40.566Z,49.67
2022-12-28T06:54:09.311Z,50.38
2022-12-28T06:56:37.498Z,49.90
2022-12-28T06:59:05.847Z,48.38
2022-12-28T07:01:40.890Z,48.47
2022-12-28T07:04:10.497Z,47.78
2022-12-28T07:06:42.832Z,57.55
2022-12-28T07:09:16.383Z,48.60
2022-12-28T07:11:50.377Z,45.85
2022-12-28T07:14:18.906Z,45.95
2022-12-28T07:16:47.665Z,45.40
2022-12-28T07:19:14.915Z,46.42
2022-12-28T07:21:42.368Z,46.08
2022-12-28T07:24:09.861Z,44.75
2022-12-28T07:26:38.098Z,43.97
2022-12-28T07:29:08.433Z,42.55
2022-12-28T07:31:44.729Z,40.50
2022-12-28T07:34:15.895Z,40.40
2022-12-28T07:36:43.710Z,40.45
2022-12-28T07:39:11.002Z,39.47
2022-12-28T07:41:38.540Z,40.22
2022-12-28T07:44:06.971Z,39.80
2022-12-28T07:46:37.794Z,40.55
2022-12-28T07:49:05.612Z,38.28
2022-12-28T07:51:38.973Z,40.42
2022-12-28T07:54:07.089Z,35.40
2022-12-28T07:59:05.571Z,31.10
2022-12-28T08:01:36.991Z,30.67
2022-12-28T08:04:09.634Z,31.30
2022-12-28T08:06:41.787Z,32.35
2022-12-28T08:09:12.674Z,33.92
2022-12-28T08:11:44.532Z,36.13
2022-12-28T08:14:12.849Z,32.22
2022-12-28T08:16:43.944Z,36.13
2022-12-28T08:19:12.117Z,33.70
2022-12-28T08:21:44.850Z,33.88
2022-12-28T08:24:19.435Z,35.35
2022-12-28T08:26:48.734Z,34.63
2022-12-28T08:29:21.709Z,33.92
2022-12-28T08:31:49.917Z,33.65
2022-12-28T08:34:26.340Z,33.78
2022-12-28T08:36:57.213Z,33.78
2022-12-28T08:39:24.606Z,31.75
2022-12-28T08:41:51.867Z,28.95
2022-12-28T08:44:19.241Z,29.80
2022-12-28T08:46:46.595Z,31.42
2022-12-28T08:49:14.192Z,31.63
2022-12-28T08:51:42.674Z,33.45
2022-12-28T08:54:13.547Z,34.17
2022-12-28T08:56:44.032Z,30.73
2022-12-28T08:59:18.435Z,31.98
2022-12-28T09:01:47.309Z,34.67
2022-12-28T09:04:22.112Z,31.70
2022-12-28T09:06:50.359Z,34.30
2022-12-28T09:09:19.892Z,31.15
2022-12-28T09:11:48.553Z,32.42
2022-12-28T09:14:23.114Z,33.83
2022-12-28T09:16:54.553Z,34.30
2022-12-28T09:19:23.198Z,33.28
2022-12-28T09:21:53.189Z,34.35
2022-12-28T09:24:21.771Z,36.22
2022-12-28T09:26:50.889Z,35.92
2022-12-28T09:29:18.122Z,37.95
2022-12-28T09:32:35.130Z,36.08
2022-12-28T09:35:02.426Z,34.72
2022-12-28T09:37:29.748Z,34.33
2022-12-28T09:40:01.346Z,36.65
2022-12-28T09:43:35.752Z,34.05
2022-12-28T09:46:03.415Z,36.25
2022-12-28T09:48:31.093Z,35.95
2022-12-28T09:50:58.437Z,37.00
2022-12-28T09:53:30.837Z,37.70
2022-12-28T09:56:24.859Z,37.30
2022-12-28T09:58:53.427Z,39.85
2022-12-28T10:01:22.410Z,41.40
2022-12-28T10:03:49.993Z,38.60
2022-12-28T10:06:25.748Z,38.10
2022-12-28T10:11:41.690Z,36.03
2022-12-28T10:14:42.808Z,36.88
2022-12-28T10:17:15.102Z,34.65
2022-12-28T10:19:46.571Z,37.25
2022-12-28T10:22:19.798Z,36.15
2022-12-28T10:24:48.247Z,36.17
2022-12-28T10:27:31.750Z,37.33
2022-12-28T10:30:02.596Z,36.90
2022-12-28T10:33:02.490Z,36.97
2022-12-28T10:35:50.117Z,37.17
2022-12-28T10:38:32.141Z,39.97
2022-12-28T10:41:09.701Z,39.40
2022-12-28T10:43:41.905Z,41.08
2022-12-28T10:46:22.612Z,40.28
2022-12-28T10:49:00.186Z,41.05
2022-12-28T10:51:29.762Z,42.15
2022-12-28T10:53:58.350Z,43.15
2022-12-28T10:56:45.073Z,46.45
2022-12-28T10:59:12.646Z,42.35
2022-12-28T11:01:42.957Z,42.90
2022-12-28T11:04:20.820Z,44.80
2022-12-28T11:07:00.124Z,43.65
2022-12-28T11:09:35.700Z,44.13
2022-12-28T11:12:28.969Z,43.90
2022-12-28T11:14:56.253Z,43.35
2022-12-28T11:17:29.194Z,41.55
2022-12-28T11:20:18.947Z,43.25
2022-12-28T11:22:47.509Z,42.47
2022-12-28T11:25:31.172Z,40.25
2022-12-28T11:27:59.479Z,44.72
2022-12-28T11:30:26.947Z,42.30
2022-12-28T11:33:02.265Z,42.25
2022-12-28T11:35:36.992Z,39.90
2022-12-28T11:38:12.229Z,40.33
2022-12-28T11:40:45.403Z,41.00
2022-12-28T11:43:30.643Z,42.83
2022-12-28T11:46:27.932Z,42.77
2022-12-28T11:48:54.912Z,41.55
2022-12-28T11:51:36.275Z,41.35
2022-12-28T11:54:42.572Z,43.38
2022-12-28T11:57:11.156Z,42.25
2022-12-28T11:59:38.385Z,41.80
2022-12-28T12:02:08.244Z,42.53
2022-12-28T12:04:46.203Z,42.17
2022-12-28T12:07:30.695Z,41.90
2022-12-28T12:10:30.936Z,42.80
2022-12-28T12:12:58.844Z,42.85
2022-12-28T12:15:37.857Z,44.00
2022-12-28T12:18:18.815Z,39.95
2022-12-28T12:21:11.617Z,41.13
2022-12-28T12:24:04.340Z,41.20
2022-12-28T12:26:58.811Z,40.00
2022-12-28T12:30:00.717Z,39.55
2022-12-28T12:32:58.839Z,38.03
2022-12-28T12:35:31.179Z,39.15
2022-12-28T12:39:17.970Z,39.20
2022-12-28T12:42:56.150Z,39.20
2022-12-28T12:45:55.903Z,38.17
2022-12-28T12:48:52.992Z,38.30
2022-12-28T12:51:43.491Z,39.28
2022-12-28T12:55:06.259Z,38.28
2022-12-28T12:58:03.148Z,39.90
2022-12-28T13:01:28.320Z,40.60
2022-12-28T13:04:07.510Z,41.65
2022-12-28T13:06:39.333Z,41.22
2022-12-28T13:09:09.789Z,42.80
2022-12-28T13:11:38.672Z,42.30
2022-12-28T13:14:06.748Z,44.70
2022-12-28T13:16:34.089Z,44.33
2022-12-28T13:19:07.331Z,42.85
2022-12-28T13:21:46.117Z,45.55
2022-12-28T13:24:28.241Z,43.55
2022-12-28T13:26:58.765Z,43.63
2022-12-28T13:29:39.118Z,45.55
2022-12-28T13:32:06.271Z,44.78
2022-12-28T13:34:38.528Z,45.38
2022-12-28T13:37:17.374Z,43.90
2022-12-28T13:39:44.889Z,45.35
2022-12-28T13:42:18.303Z,48.15
2022-12-28T13:45:09.063Z,47.97
2022-12-28T13:47:49.650Z,51.95
2022-12-28T13:50:32.756Z,47.60
2022-12-28T13:53:05.152Z,48.03
2022-12-28T13:55:50.135Z,49.15
2022-12-28T13:58:30.408Z,48.40
2022-12-28T14:01:01.410Z,43.15
2022-12-28T14:03:33.356Z,49.00
2022-12-28T14:06:06.347Z,51.00
2022-12-28T14:08:37.793Z,47.85
2022-12-28T14:11:06.538Z,49.80
2022-12-28T14:13:36.035Z,51.90
2022-12-28T14:16:05.473Z,52.13
2022-12-28T14:18:34.599Z,53.95
2022-12-28T14:21:03.916Z,52.53
2022-12-28T14:23:35.600Z,55.85
2022-12-28T14:26:19.302Z,51.65
2022-12-28T14:28:54.555Z,52.08
2022-12-28T14:31:32.076Z,55.08
2022-12-28T14:34:04.853Z,55.78
2022-12-28T14:36:46.406Z,57.10
2022-12-28T14:39:45.269Z,57.22
2022-12-28T14:42:26.159Z,56.50
2022-12-28T14:44:56.516Z,57.95
2022-12-28T14:47:45.233Z,56.05
2022-12-28T14:50:31.537Z,56.10
2022-12-28T14:53:20.150Z,58.60
2022-12-28T14:55:53.096Z,54.20
2022-12-28T14:58:30.960Z,56.90
2022-12-28T15:01:03.096Z,54.97
2022-12-28T15:03:30.847Z,54.95
2022-12-28T15:06:00.011Z,56.85
2022-12-28T15:08:27.722Z,64.00
2022-12-28T15:11:00.242Z,57.10
2022-12-28T15:13:27.716Z,57.63
2022-12-28T15:16:01.552Z,49.15
2022-12-28T15:18:30.752Z,55.90
2022-12-28T15:21:03.232Z,52.78
2022-12-28T15:23:30.449Z,54.17
2022-12-28T15:25:57.664Z,56.92
2022-12-28T15:28:25.713Z,51.45
2022-12-28T15:30:52.929Z,52.13
2022-12-28T15:33:20.179Z,53.42
2022-12-28T15:35:47.406Z,53.42
2022-12-28T15:38:14.549Z,53.33
2022-12-28T15:40:41.847Z,52.35
2022-12-28T15:43:09.389Z,52.47
2022-12-28T15:45:36.693Z,54.40
2022-12-28T15:48:05.026Z,56.28
2022-12-28T15:50:32.278Z,54.38
2022-12-28T15:53:00.457Z,52.63
2022-12-28T15:55:27.716Z,54.65
2022-12-28T15:57:55.613Z,54.00
2022-12-28T16:00:22.935Z,54.63
2022-12-28T16:02:50.299Z,53.33
2022-12-28T16:05:17.733Z,52.50
2022-12-28T16:07:45.000Z,51.88
2022-12-28T16:10:12.259Z,52.03
2022-12-28T16:12:39.741Z,52.95
2022-12-28T16:15:08.676Z,54.08
2022-12-28T16:17:43.322Z,54.28
2022-12-28T16:20:17.346Z,54.75
2022-12-28T16:22:44.588Z,53.25
2022-12-28T16:25:11.995Z,53.72
2022-12-28T16:27:39.312Z,57.08
2022-12-28T16:30:07.545Z,55.47
2022-12-28T16:32:34.812Z,58.15
2022-12-28T16:35:02.042Z,56.58
2022-12-28T16:37:29.340Z,55.53
2022-12-28T16:39:56.552Z,55.85
2022-12-28T16:42:23.834Z,56.10
2022-12-28T16:44:51.293Z,56.55
2022-12-28T16:47:18.515Z,56.35
2022-12-28T16:49:45.773Z,56.75
2022-12-28T16:52:13.025Z,57.50
2022-12-28T16:54:40.173Z,54.13
2022-12-28T16:57:07.471Z,58.30
2022-12-28T16:59:34.701Z,56.90
2022-12-28T17:02:02.305Z,57.33
2022-12-28T17:04:29.763Z,59.75
2022-12-28T17:06:57.160Z,57.35
2022-12-28T17:09:24.367Z,59.20
2022-12-28T17:11:51.852Z,57.90
2022-12-28T17:17:07.796Z,57.42
2022-12-28T17:19:35.718Z,59.75
2022-12-28T17:22:04.785Z,56.58
2022-12-28T17:24:31.984Z,59.03
2022-12-28T17:27:03.638Z,56.17
2022-12-28T17:29:34.640Z,57.70
2022-12-28T17:32:01.899Z,57.28
2022-12-28T17:34:29.097Z,62.50
2022-12-28T17:36:56.314Z,60.53
2022-12-28T17:39:23.500Z,58.38
2022-12-28T17:41:50.786Z,59.67
2022-12-28T17:44:18.033Z,58.97
2022-12-28T17:46:45.141Z,55.38
2022-12-28T17:49:15.843Z,59.03
2022-12-28T17:51:44.447Z,57.35
2022-12-28T17:54:14.767Z,59.35
2022-12-28T17:56:43.337Z,55.28
2022-12-28T17:59:16.315Z,57.47
2022-12-28T18:01:43.632Z,57.75
2022-12-28T18:04:12.121Z,56.08
2022-12-28T18:06:39.717Z,59.33
2022-12-28T18:09:06.919Z,61.25
2022-12-28T18:11:34.207Z,58.70
2022-12-28T18:14:01.389Z,58.15
2022-12-28T18:16:28.690Z,58.60
2022-12-28T18:18:55.914Z,61.05
2022-12-28T18:21:23.198Z,60.70
2022-12-28T18:23:52.609Z,60.35
2022-12-28T18:26:26.593Z,60.28
2022-12-28T18:28:57.480Z,57.60
2022-12-28T18:31:26.718Z,57.75
2022-12-28T18:33:54.008Z,62.95
2022-12-28T18:36:21.318Z,57.00
2022-12-28T18:38:49.242Z,57.67
2022-12-28T18:41:20.925Z,59.60
2022-12-28T18:43:51.269Z,59.55
2022-12-28T18:46:19.095Z,55.90
2022-12-28T18:48:46.408Z,59.83
2022-12-28T18:51:18.367Z,57.13
2022-12-28T18:53:46.661Z,60.72
2022-12-28T18:56:18.882Z,59.95
2022-12-28T18:58:55.579Z,60.80
2022-12-28T19:04:16.472Z,62.08
2022-12-28T19:06:44.340Z,63.35
2022-12-28T19:09:12.399Z,62.85
2022-12-28T19:11:40.555Z,65.32
2022-12-28T19:14:12.334Z,61.60
2022-12-28T19:16:40.600Z,60.80
2022-12-28T19:19:08.071Z,62.25
2022-12-28T19:21:41.855Z,60.05
2022-12-28T19:24:18.803Z,60.95
2022-12-28T19:26:47.211Z,60.80
2022-12-28T19:29:16.507Z,62.10
2022-12-28T19:31:44.231Z,60.63
2022-12-28T19:34:11.647Z,62.58
2022-12-28T19:36:38.825Z,61.20
2022-12-28T19:39:06.260Z,63.70
2022-12-28T19:41:33.562Z,62.03
2022-12-28T19:44:01.488Z,63.67
2022-12-28T19:46:32.823Z,65.30
2022-12-28T19:49:02.987Z,61.10
2022-12-28T19:51:32.929Z,61.70
2022-12-28T19:54:01.930Z,64.35
2022-12-28T19:56:29.391Z,64.38
2022-12-28T19:59:04.922Z,60.60
2022-12-28T20:01:35.170Z,60.40
2022-12-28T20:04:08.809Z,60.47
2022-12-28T20:06:40.925Z,63.45
2022-12-28T20:09:08.116Z,63.45
2022-12-28T20:11:38.164Z,64.63
2022-12-28T20:14:06.214Z,61.78
2022-12-28T20:16:36.096Z,59.88
2022-12-28T20:19:06.921Z,59.55
2022-12-28T20:21:36.833Z,64.82
2022-12-28T20:24:05.814Z,63.35
2022-12-28T20:26:33.355Z,59.53
2022-12-28T20:29:02.823Z,61.78
2022-12-28T20:31:30.965Z,65.40
2022-12-28T20:33:58.512Z,65.45
2022-12-28T20:36:28.699Z,66.60
2022-12-28T20:38:56.702Z,69.50
2022-12-28T20:41:48.541Z,68.40
2022-12-28T20:44:26.753Z,65.75
2022-12-28T20:46:56.275Z,64.50
2022-12-28T20:49:26.814Z,67.78
2022-12-28T20:51:54.880Z,69.55
2022-12-28T20:54:22.569Z,69.82
2022-12-28T20:56:54.667Z,65.90
2022-12-28T20:59:24.740Z,68.45
2022-12-28T21:01:52.279Z,65.30
2022-12-28T21:04:19.710Z,69.35
2022-12-28T21:06:47.007Z,69.32
2022-12-28T21:09:14.155Z,70.63
2022-12-28T21:11:42.331Z,68.13
2022-12-28T21:14:09.487Z,68.20
2022-12-28T21:16:37.016Z,70.88
2022-12-28T21:19:04.349Z,63.83
2022-12-28T21:21:31.582Z,68.93
2022-12-28T21:23:58.936Z,70.07
2022-12-28T21:26:26.162Z,66.53
2022-12-28T21:28:53.400Z,64.53
2022-12-28T21:31:20.623Z,64.75
2022-12-28T21:33:47.872Z,64.13
2022-12-28T21:36:19.062Z,64.20
2022-12-28T21:38:49.860Z,62.03
2022-12-28T21:41:40.079Z,65.22
2022-12-28T21:44:11.548Z,63.67
2022-12-28T21:46:39.169Z,63.63
2022-12-28T21:49:07.132Z,66.10
2022-12-28T21:51:35.398Z,64.25
2022-12-28T21:54:12.156Z,62.53
2022-12-28T21:56:41.873Z,64.15
2022-12-28T21:59:11.997Z,64.15
2022-12-28T22:01:59.992Z,69.20
2022-12-28T22:04:47.269Z,66.47
2022-12-28T22:07:18.084Z,66.22
2022-12-28T22:10:04.299Z,64.80
2022-12-28T22:15:37.495Z,59.83
2022-12-28T22:18:29.998Z,62.17
2022-12-28T22:21:03.101Z,64.43
2022-12-28T22:23:34.544Z,65.57
2022-12-28T22:26:03.271Z,64.63
2022-12-28T22:28:30.671Z,69.57
2022-12-28T22:30:57.859Z,68.18
2022-12-28T22:33:25.076Z,65.20
2022-12-28T22:35:52.229Z,65.10
2022-12-28T22:38:19.479Z,66.05
2022-12-28T22:40:56.749Z,62.92
2022-12-28T22:43:23.964Z,64.68
2022-12-28T22:46:07.716Z,64.68
2022-12-28T22:48:35.867Z,63.40
2022-12-28T22:51:11.669Z,63.00
2022-12-28T22:53:40.082Z,64.05
2022-12-28T22:56:12.578Z,65.15
2022-12-28T22:58:39.788Z,65.43
2022-12-28T23:01:15.199Z,63.33
2022-12-28T23:03:45.611Z,64.13
2022-12-28T23:06:18.421Z,61.65
2022-12-28T23:08:46.809Z,64.22
2022-12-28T23:11:36.524Z,67.53
2022-12-28T23:14:33.039Z,66.07
2022-12-28T23:17:02.182Z,65.03
2022-12-28T23:19:48.900Z,65.05
2022-12-28T23:22:45.850Z,61.58
2022-12-28T23:25:39.362Z,66.70
2022-12-28T23:28:12.608Z,64.97
2022-12-28T23:30:46.345Z,61.40
2022-12-28T23:33:15.240Z,67.47
2022-12-28T23:35:42.569Z,62.30
2022-12-28T23:38:10.795Z,65.65
2022-12-28T23:40:41.044Z,65.00
2022-12-28T23:43:08.632Z,63.10
2022-12-28T23:45:36.564Z,65.47
2022-12-28T23:48:05.039Z,69.10
2022-12-28T23:50:32.496Z,68.65
2022-12-28T23:52:59.785Z,70.07
2022-12-28T23:55:27.063Z,65.53
2022-12-28T23:57:54.188Z,62.10
